createdAt,value
2018-11-28T00:05:17.787Z,16.65
2018-11-28T00:11:21.230Z,17.40
2018-11-28T00:17:27.460Z,16.35
2018-11-28T00:23:30.899Z,16.77
2018-11-28T00:29:34.393Z,14.73
2018-11-28T00:35:37.779Z,14.33
2018-11-28T00:41:41.219Z,15.60
2018-11-28T00:47:47.973Z,16.07
2018-11-28T00:53:51.395Z,14.18
2018-11-28T01:06:03.525Z,12.40
2018-11-28T01:12:06.954Z,12.37
2018-11-28T01:18:10.394Z,12.60
2018-11-28T01:24:13.907Z,11.38
2018-11-28T01:30:19.241Z,10.80
2018-11-28T01:36:22.744Z,10.20
2018-11-28T01:42:26.246Z,11.53
2018-11-28T01:48:29.643Z,7.20
2018-11-28T01:54:33.055Z,10.58
2018-11-28T02:00:36.497Z,11.03
2018-11-28T02:06:39.914Z,11.18
2018-11-28T02:12:43.602Z,7.10
2018-11-28T02:18:47.011Z,10.38
2018-11-28T02:24:50.437Z,11.22
2018-11-28T02:30:53.962Z,10.90
2018-11-28T02:36:57.393Z,10.30
2018-11-28T02:43:00.839Z,11.57
2018-11-28T02:49:04.351Z,8.90
2018-11-28T02:55:11.617Z,11.55
2018-11-28T03:01:15.060Z,9.70
2018-11-28T03:07:19.189Z,10.98
2018-11-28T03:13:23.483Z,9.90
2018-11-28T03:19:26.907Z,10.30
2018-11-28T03:25:30.327Z,10.05
2018-11-28T03:31:33.799Z,7.00
2018-11-28T03:37:37.221Z,7.70
2018-11-28T03:43:40.652Z,8.60
2018-11-28T03:49:44.075Z,8.88
2018-11-28T03:55:47.510Z,7.53
2018-11-28T04:01:51.017Z,9.25
2018-11-28T04:07:54.506Z,7.80
2018-11-28T04:13:58.013Z,8.70
2018-11-28T04:20:01.463Z,6.05
2018-11-28T04:26:04.930Z,5.28
2018-11-28T04:32:08.403Z,6.58
2018-11-28T04:38:11.858Z,6.80
2018-11-28T04:44:15.318Z,5.42
2018-11-28T04:50:18.817Z,6.87
2018-11-28T04:56:22.251Z,7.58
2018-11-28T05:02:25.710Z,7.30
2018-11-28T05:08:29.130Z,7.78
2018-11-28T05:14:32.580Z,7.33
2018-11-28T05:20:36.021Z,5.55
2018-11-28T05:26:39.470Z,12.43
2018-11-28T05:32:42.888Z,5.87
2018-11-28T05:38:46.323Z,10.88
2018-11-28T05:44:49.768Z,43.65
2018-11-28T05:50:53.213Z,40.83
2018-11-28T05:56:56.691Z,14.35
2018-11-28T06:03:00.128Z,6.47
2018-11-28T06:09:04.738Z,8.48
2018-11-28T06:15:10.239Z,8.05
2018-11-28T06:21:13.703Z,8.43
2018-11-28T06:27:17.125Z,8.25
2018-11-28T06:33:20.604Z,7.35
2018-11-28T06:39:24.085Z,7.50
2018-11-28T06:45:27.551Z,9.63
2018-11-28T06:51:31.327Z,16.45
2018-11-28T06:57:34.821Z,15.48
2018-11-28T07:03:38.321Z,17.50
2018-11-28T07:09:45.284Z,13.68
2018-11-28T07:15:48.724Z,10.25
2018-11-28T07:21:52.237Z,9.33
2018-11-28T07:27:55.683Z,17.70
2018-11-28T07:33:59.141Z,36.48
2018-11-28T07:40:02.647Z,18.82
2018-11-28T07:46:06.597Z,18.67
2018-11-28T07:52:10.131Z,18.92
2018-11-28T07:58:13.652Z,22.75
2018-11-28T08:04:17.168Z,33.85
2018-11-28T08:10:21.050Z,30.17
2018-11-28T08:16:24.476Z,44.95
2018-11-28T08:22:27.947Z,13.72
2018-11-28T08:28:31.400Z,25.23
2018-11-28T08:34:34.850Z,49.53
2018-11-28T08:40:38.287Z,27.73
2018-11-28T08:46:41.715Z,10.95
2018-11-28T08:52:45.223Z,8.95
2018-11-28T08:58:48.699Z,8.28
2018-11-28T09:04:52.135Z,8.08
2018-11-28T09:10:56.072Z,6.50
2018-11-28T09:16:59.511Z,7.05
2018-11-28T09:23:02.964Z,6.40
2018-11-28T09:29:06.431Z,6.53
2018-11-28T09:35:10.638Z,6.67
2018-11-28T09:41:14.105Z,6.70
2018-11-28T09:47:17.545Z,6.37
2018-11-28T09:53:21.001Z,6.85
2018-11-28T09:59:24.506Z,6.80
2018-11-28T10:05:31.019Z,6.60
2018-11-28T10:11:34.483Z,6.80
2018-11-28T10:17:37.929Z,6.53
2018-11-28T10:23:41.383Z,6.80
2018-11-28T10:29:44.799Z,6.67
2018-11-28T10:35:48.282Z,6.20
2018-11-28T10:41:51.728Z,6.28
2018-11-28T10:47:55.369Z,6.28
2018-11-28T10:53:58.811Z,6.78
2018-11-28T11:00:02.237Z,6.15
2018-11-28T11:06:11.242Z,6.17
2018-11-28T11:12:22.745Z,7.20
2018-11-28T11:18:26.826Z,7.28
2018-11-28T11:24:30.320Z,14.00
2018-11-28T11:30:33.829Z,17.80
2018-11-28T11:36:37.269Z,13.55
2018-11-28T11:42:40.789Z,13.13
2018-11-28T11:48:44.199Z,13.68
2018-11-28T11:54:47.623Z,11.65
2018-11-28T12:00:51.456Z,9.53
2018-11-28T12:06:54.934Z,9.48
2018-11-28T12:12:58.573Z,9.53
2018-11-28T12:19:02.287Z,9.83
2018-11-28T12:25:06.219Z,10.90
2018-11-28T12:31:09.660Z,11.48
2018-11-28T12:37:13.143Z,11.73
2018-11-28T12:43:16.670Z,11.55
2018-11-28T12:49:20.192Z,12.40
2018-11-28T12:55:25.111Z,13.00
2018-11-28T13:01:27.409Z,15.28
2018-11-28T13:07:30.847Z,14.63
2018-11-28T13:13:34.304Z,14.33
2018-11-28T13:19:37.744Z,13.53
2018-11-28T13:25:41.175Z,12.18
2018-11-28T13:31:45.105Z,14.85
2018-11-28T13:37:49.551Z,13.08
2018-11-28T13:43:52.979Z,14.15
2018-11-28T13:49:56.403Z,13.68
2018-11-28T14:02:03.379Z,11.85
2018-11-28T14:08:06.979Z,12.35
2018-11-28T14:14:10.422Z,13.98
2018-11-28T14:20:13.981Z,13.85
2018-11-28T14:26:17.439Z,14.30
2018-11-28T14:32:20.964Z,15.03
2018-11-28T14:38:24.435Z,12.95
2018-11-28T14:44:27.863Z,12.75
2018-11-28T14:50:31.409Z,11.30
2018-11-28T14:56:34.932Z,12.50
2018-11-28T15:02:38.409Z,11.45
2018-11-28T15:08:41.872Z,10.90
2018-11-28T15:14:45.300Z,9.25
2018-11-28T15:20:48.732Z,10.68
2018-11-28T15:26:52.222Z,8.63
2018-11-28T15:32:55.672Z,8.75
2018-11-28T15:38:59.223Z,9.08
2018-11-28T15:45:02.712Z,8.18
2018-11-28T15:51:06.377Z,7.40
2018-11-28T15:57:09.950Z,9.25
2018-11-28T16:03:13.474Z,9.35
2018-11-28T16:09:22.282Z,8.15
2018-11-28T16:15:27.491Z,6.62
2018-11-28T16:21:30.942Z,8.35
2018-11-28T16:27:41.740Z,8.00
2018-11-28T16:33:37.986Z,9.88
2018-11-28T16:39:41.556Z,10.18
2018-11-28T16:45:45.071Z,18.70
2018-11-28T16:51:55.112Z,10.03
2018-11-28T16:57:58.654Z,7.42
2018-11-28T17:04:02.251Z,6.65
2018-11-28T17:10:08.692Z,6.87
2018-11-28T17:16:12.183Z,6.08
2018-11-28T17:22:15.649Z,6.03
2018-11-28T17:28:19.141Z,3.30
2018-11-28T17:34:22.746Z,4.42
2018-11-28T17:40:28.143Z,4.87
2018-11-28T17:46:31.620Z,4.17
2018-11-28T17:52:35.100Z,2.70
2018-11-28T17:58:38.644Z,3.87
2018-11-28T18:04:42.107Z,4.05
2018-11-28T18:10:45.593Z,3.90
2018-11-28T18:16:49.108Z,4.00
2018-11-28T18:22:52.614Z,4.78
2018-11-28T18:28:56.236Z,4.83
2018-11-28T18:34:59.702Z,5.10
2018-11-28T18:41:03.225Z,4.20
2018-11-28T18:47:06.992Z,4.10
2018-11-28T18:53:10.709Z,4.83
2018-11-28T18:59:14.155Z,4.72
2018-11-28T19:05:17.669Z,4.72
2018-11-28T19:11:21.144Z,4.45
2018-11-28T19:17:24.603Z,3.70
2018-11-28T19:23:28.041Z,3.98
2018-11-28T19:29:31.523Z,3.80
2018-11-28T19:35:35.016Z,3.60
2018-11-28T19:41:38.463Z,3.20
2018-11-28T19:47:41.938Z,3.98
2018-11-28T19:53:45.420Z,4.05
2018-11-28T19:59:48.916Z,4.17
2018-11-28T20:05:52.420Z,3.52
2018-11-28T20:11:55.932Z,3.58
2018-11-28T20:17:59.419Z,3.22
2018-11-28T20:24:02.959Z,4.28
2018-11-28T20:30:14.445Z,4.62
2018-11-28T20:36:18.103Z,4.90
2018-11-28T20:42:21.878Z,3.80
2018-11-28T20:48:25.326Z,3.25
2018-11-28T20:54:28.784Z,3.95
2018-11-28T21:00:32.273Z,6.10
2018-11-28T21:06:35.714Z,4.80
2018-11-28T21:12:39.172Z,3.42
2018-11-28T21:18:42.722Z,3.72
2018-11-28T21:24:46.183Z,3.22
2018-11-28T21:30:49.665Z,4.15
2018-11-28T21:36:53.079Z,3.35
2018-11-28T21:42:56.587Z,4.03
2018-11-28T21:49:00.039Z,3.70
2018-11-28T21:55:03.568Z,3.37
2018-11-28T22:01:15.199Z,2.85
2018-11-28T22:07:18.691Z,3.10
2018-11-28T22:13:22.199Z,2.87
2018-11-28T22:19:25.649Z,2.40
2018-11-28T22:25:29.199Z,3.20
2018-11-28T22:31:32.663Z,3.58
2018-11-28T22:37:36.191Z,3.08
2018-11-28T22:43:39.656Z,2.95
2018-11-28T22:49:43.145Z,2.67
2018-11-28T22:55:46.583Z,2.50
2018-11-28T23:03:56.513Z,2.75
2018-11-28T23:09:59.947Z,2.77
2018-11-28T23:16:03.421Z,3.08
2018-11-28T23:22:06.897Z,2.83
2018-11-28T23:28:10.318Z,3.02
2018-11-28T23:34:13.732Z,3.15
2018-11-28T23:40:18.299Z,3.25
2018-11-28T23:46:21.778Z,3.00
2018-11-28T23:52:25.212Z,2.87
2018-11-28T23:58:28.644Z,2.83
